createdAt,value
2018-05-06T00:00:09.952Z,12.90
2018-05-06T00:02:38.643Z,12.80
2018-05-06T00:05:07.238Z,12.70
2018-05-06T00:07:35.935Z,12.70
2018-05-06T00:10:03.833Z,12.60
2018-05-06T00:12:31.685Z,12.60
2018-05-06T00:14:59.514Z,12.60
2018-05-06T00:17:27.390Z,12.60
2018-05-06T00:19:55.238Z,12.30
2018-05-06T00:22:23.120Z,12.30
2018-05-06T00:24:51.312Z,12.20
2018-05-06T00:27:19.148Z,12.10
2018-05-06T00:29:47.759Z,12.20
2018-05-06T00:32:15.748Z,12.20
2018-05-06T00:34:43.703Z,12.10
2018-05-06T00:37:26.747Z,12.00
2018-05-06T00:39:54.572Z,11.90
2018-05-06T00:42:22.400Z,11.90
2018-05-06T00:44:50.256Z,11.80
2018-05-06T00:47:18.089Z,11.80
2018-05-06T00:49:46.669Z,11.80
2018-05-06T00:52:14.548Z,11.80
2018-05-06T00:54:44.228Z,11.80
2018-05-06T00:57:12.045Z,11.70
2018-05-06T00:59:39.927Z,11.70
2018-05-06T01:02:07.709Z,11.70
2018-05-06T01:04:35.712Z,11.60
2018-05-06T01:07:03.574Z,11.50
2018-05-06T01:09:31.440Z,11.40
2018-05-06T01:12:00.025Z,11.20
2018-05-06T01:14:28.714Z,11.00
2018-05-06T01:16:57.327Z,11.10
2018-05-06T01:22:05.320Z,10.90
2018-05-06T01:24:33.305Z,10.90
2018-05-06T01:27:01.192Z,10.80
2018-05-06T01:29:29.029Z,10.80
2018-05-06T01:31:56.932Z,10.80
2018-05-06T01:34:24.752Z,10.90
2018-05-06T01:36:52.692Z,10.90
2018-05-06T01:46:16.009Z,10.70
2018-05-06T01:48:43.840Z,10.70
2018-05-06T01:51:11.661Z,10.40
2018-05-06T01:53:39.509Z,10.40
2018-05-06T01:58:28.296Z,10.40
2018-05-06T02:06:46.091Z,10.20
2018-05-06T02:11:55.635Z,10.00
2018-05-06T02:14:24.216Z,10.00
2018-05-06T02:16:52.806Z,9.90
2018-05-06T02:19:20.617Z,9.90
2018-05-06T02:21:48.440Z,9.90
2018-05-06T02:24:17.012Z,9.90
2018-05-06T02:26:46.849Z,9.80
2018-05-06T02:29:14.682Z,9.80
2018-05-06T02:31:43.370Z,9.60
2018-05-06T02:34:12.092Z,9.60
2018-05-06T02:36:39.909Z,9.60
2018-05-06T02:39:07.815Z,9.50
2018-05-06T02:41:35.632Z,9.50
2018-05-06T02:44:03.522Z,9.40
2018-05-06T02:46:31.377Z,9.40
2018-05-06T02:48:59.973Z,9.30
2018-05-06T02:51:27.768Z,9.30
2018-05-06T02:57:28.711Z,9.30
2018-05-06T02:59:57.292Z,9.20
2018-05-06T03:11:19.171Z,9.00
2018-05-06T03:13:47.857Z,8.50
2018-05-06T03:16:16.531Z,8.60
2018-05-06T03:18:44.369Z,8.60
2018-05-06T03:21:12.214Z,8.60
2018-05-06T03:26:22.522Z,8.50
2018-05-06T03:28:50.345Z,8.50
2018-05-06T03:31:18.164Z,8.60
2018-05-06T03:33:45.981Z,8.50
2018-05-06T03:36:13.796Z,8.40
2018-05-06T03:42:12.137Z,8.20
2018-05-06T03:44:39.991Z,8.10
2018-05-06T03:47:07.814Z,8.20
2018-05-06T03:49:35.644Z,8.10
2018-05-06T03:52:03.448Z,8.10
2018-05-06T03:54:31.316Z,8.10
2018-05-06T03:57:04.975Z,8.20
2018-05-06T03:59:38.782Z,8.00
2018-05-06T04:02:21.486Z,8.10
2018-05-06T04:04:49.310Z,8.00
2018-05-06T04:07:17.131Z,8.10
2018-05-06T04:16:35.602Z,8.10
2018-05-06T04:19:04.176Z,8.00
2018-05-06T04:21:32.771Z,8.10
2018-05-06T04:24:01.421Z,8.10
2018-05-06T04:26:29.256Z,8.10
2018-05-06T04:28:58.413Z,8.10
2018-05-06T04:31:27.023Z,8.10
2018-05-06T04:33:54.844Z,8.10
2018-05-06T04:36:22.809Z,8.00
2018-05-06T04:45:51.056Z,8.20
2018-05-06T04:48:19.706Z,8.30
2018-05-06T04:50:47.503Z,8.30
2018-05-06T04:53:16.165Z,8.60
2018-05-06T04:55:44.072Z,8.50
2018-05-06T04:58:11.901Z,8.70
2018-05-06T05:00:39.789Z,8.70
2018-05-06T05:03:08.375Z,9.00
2018-05-06T05:05:37.013Z,9.20
2018-05-06T05:11:43.365Z,9.20
2018-05-06T05:14:11.184Z,9.30
2018-05-06T05:16:39.057Z,9.40
2018-05-06T05:19:06.965Z,9.40
2018-05-06T05:21:34.780Z,9.40
2018-05-06T05:27:15.443Z,10.00
2018-05-06T05:29:45.314Z,10.00
2018-05-06T05:32:13.181Z,10.00
2018-05-06T05:34:41.792Z,10.10
2018-05-06T05:37:09.633Z,10.10
2018-05-06T05:39:38.744Z,10.20
2018-05-06T05:42:07.240Z,10.20
2018-05-06T05:44:35.207Z,10.50
2018-05-06T05:47:03.103Z,10.60
2018-05-06T05:49:31.237Z,10.60
2018-05-06T05:51:59.866Z,10.80
2018-05-06T05:54:27.804Z,10.80
2018-05-06T05:56:55.685Z,11.10
2018-05-06T05:59:23.539Z,11.20
2018-05-06T06:01:51.412Z,11.40
2018-05-06T06:04:19.225Z,11.40
2018-05-06T06:06:47.266Z,11.60
2018-05-06T06:09:15.371Z,11.60
2018-05-06T06:11:43.172Z,11.70
2018-05-06T06:14:11.240Z,11.80
2018-05-06T06:16:39.082Z,11.90
2018-05-06T06:19:07.661Z,12.20
2018-05-06T06:21:35.489Z,12.20
2018-05-06T06:24:03.317Z,12.40
2018-05-06T06:26:31.226Z,12.40
2018-05-06T06:28:59.066Z,12.50
2018-05-06T06:31:26.994Z,12.70
2018-05-06T06:34:11.956Z,12.70
2018-05-06T06:36:39.871Z,12.70
2018-05-06T06:39:07.730Z,12.90
2018-05-06T06:41:35.568Z,13.00
2018-05-06T06:44:03.437Z,13.20
2018-05-06T06:46:32.041Z,13.70
2018-05-06T06:48:59.876Z,13.60
2018-05-06T06:51:28.483Z,14.00
2018-05-06T06:53:56.627Z,14.00
2018-05-06T06:56:25.644Z,14.80
2018-05-06T06:58:53.875Z,14.70
2018-05-06T07:01:22.143Z,15.10
2018-05-06T07:03:50.411Z,15.60
2018-05-06T07:06:18.612Z,16.00
2018-05-06T07:08:46.888Z,17.10
2018-05-06T07:11:15.135Z,18.30
2018-05-06T07:13:44.151Z,20.40
2018-05-06T07:16:12.404Z,20.40
2018-05-06T07:18:40.667Z,21.00
2018-05-06T07:21:08.896Z,22.60
2018-05-06T07:23:37.156Z,23.70
2018-05-06T07:26:05.348Z,24.40
2018-05-06T07:28:34.422Z,25.30
2018-05-06T07:31:02.872Z,25.30
2018-05-06T07:33:32.270Z,26.30
2018-05-06T07:36:00.459Z,26.30
2018-05-06T07:38:28.760Z,27.30
2018-05-06T07:40:56.991Z,28.00
2018-05-06T07:43:25.179Z,28.70
2018-05-06T07:45:53.216Z,28.60
2018-05-06T07:48:21.149Z,29.00
2018-05-06T07:50:49.255Z,28.90
2018-05-06T07:53:17.591Z,28.50
2018-05-06T07:55:45.863Z,28.60
2018-05-06T07:58:13.812Z,29.00
2018-05-06T08:00:42.314Z,27.60
2018-05-06T08:03:11.558Z,28.20
2018-05-06T08:05:40.599Z,29.20
2018-05-06T08:08:08.798Z,29.20
2018-05-06T08:10:37.854Z,28.20
2018-05-06T08:13:06.265Z,28.10
2018-05-06T08:15:34.472Z,29.70
2018-05-06T08:18:02.728Z,30.20
2018-05-06T08:20:30.960Z,29.20
2018-05-06T08:22:59.203Z,29.60
2018-05-06T08:25:27.145Z,28.50
2018-05-06T08:27:54.975Z,27.60
2018-05-06T08:30:23.064Z,28.70
2018-05-06T08:32:51.308Z,28.90
2018-05-06T08:35:19.603Z,29.00
2018-05-06T08:37:50.112Z,28.50
2018-05-06T08:40:17.825Z,28.00
2018-05-06T08:42:45.660Z,28.30
2018-05-06T08:45:13.621Z,28.30
2018-05-06T08:47:42.222Z,26.60
2018-05-06T08:50:10.039Z,26.60
2018-05-06T08:52:38.808Z,25.30
2018-05-06T08:55:06.694Z,25.30
2018-05-06T08:57:35.288Z,24.10
2018-05-06T09:00:04.366Z,24.00
2018-05-06T09:02:32.175Z,24.60
2018-05-06T09:11:00.817Z,22.70
2018-05-06T09:13:28.644Z,22.70
2018-05-06T09:15:56.457Z,22.90
2018-05-06T09:18:25.583Z,21.50
2018-05-06T09:20:54.183Z,21.40
2018-05-06T09:23:22.773Z,20.60
2018-05-06T09:25:50.641Z,20.60
2018-05-06T09:28:18.474Z,20.90
2018-05-06T09:30:47.129Z,21.00
2018-05-06T09:33:15.038Z,21.00
2018-05-06T09:35:43.985Z,21.00
2018-05-06T09:38:11.815Z,21.00
2018-05-06T09:40:40.501Z,21.30
2018-05-06T09:43:08.502Z,21.20
2018-05-06T09:45:36.328Z,21.40
2018-05-06T09:48:04.225Z,21.40
2018-05-06T09:50:32.813Z,21.20
2018-05-06T09:53:01.416Z,21.10
2018-05-06T09:55:29.249Z,21.10
2018-05-06T09:57:57.856Z,21.30
2018-05-06T10:00:25.698Z,21.20
2018-05-06T10:02:54.295Z,21.30
2018-05-06T10:05:22.125Z,21.30
2018-05-06T10:07:50.006Z,20.90
2018-05-06T10:10:18.633Z,20.90
2018-05-06T10:12:46.462Z,20.90
2018-05-06T10:15:15.063Z,20.90
2018-05-06T10:17:42.912Z,20.80
2018-05-06T10:20:11.521Z,21.00
2018-05-06T10:22:39.394Z,21.00
2018-05-06T10:25:07.276Z,21.00
2018-05-06T10:27:35.029Z,20.90
2018-05-06T10:30:02.945Z,21.00
2018-05-06T10:32:30.796Z,21.20
2018-05-06T10:34:58.657Z,21.10
2018-05-06T10:37:26.800Z,21.10
2018-05-06T10:39:54.664Z,21.00
2018-05-06T10:42:22.719Z,21.30
2018-05-06T10:44:50.485Z,21.30
2018-05-06T10:47:19.184Z,21.50
2018-05-06T10:49:47.786Z,21.50
2018-05-06T10:52:15.617Z,21.40
2018-05-06T10:54:44.356Z,21.40
2018-05-06T10:57:12.255Z,21.40
2018-05-06T10:59:40.181Z,21.60
2018-05-06T11:02:23.157Z,21.60
2018-05-06T11:04:51.015Z,21.70
2018-05-06T11:11:03.251Z,21.60
2018-05-06T11:13:31.060Z,21.60
2018-05-06T11:15:58.981Z,21.60
2018-05-06T11:18:26.860Z,21.70
2018-05-06T11:20:55.488Z,21.70
2018-05-06T11:23:23.394Z,21.70
2018-05-06T11:25:51.236Z,21.70
2018-05-06T11:28:19.083Z,21.90
2018-05-06T11:30:47.733Z,22.00
2018-05-06T11:36:51.475Z,22.40
2018-05-06T11:39:20.105Z,22.40
2018-05-06T11:41:47.948Z,22.40
2018-05-06T11:44:15.781Z,22.60
2018-05-06T11:46:43.673Z,22.50
2018-05-06T11:49:11.685Z,22.30
2018-05-06T11:54:20.590Z,22.80
2018-05-06T11:56:48.556Z,23.10
2018-05-06T11:59:16.478Z,22.70
2018-05-06T12:01:45.217Z,22.80
2018-05-06T12:06:53.852Z,23.00
2018-05-06T12:09:21.689Z,22.90
2018-05-06T12:11:49.577Z,22.80
2018-05-06T12:14:17.426Z,23.00
2018-05-06T12:16:46.036Z,23.00
2018-05-06T12:19:14.023Z,23.00
2018-05-06T12:21:42.009Z,23.20
2018-05-06T12:24:09.859Z,23.20
2018-05-06T12:26:37.700Z,23.70
2018-05-06T12:29:05.532Z,23.50
2018-05-06T12:31:34.148Z,23.60
2018-05-06T12:34:01.990Z,23.50
2018-05-06T12:36:29.876Z,23.60
2018-05-06T12:38:58.596Z,23.50
2018-05-06T12:41:26.576Z,23.50
2018-05-06T12:43:55.158Z,23.70
2018-05-06T12:46:23.052Z,23.90
2018-05-06T12:48:52.456Z,24.30
2018-05-06T12:51:20.279Z,24.10
2018-05-06T12:53:48.114Z,24.10
2018-05-06T12:56:16.716Z,24.20
2018-05-06T12:58:44.771Z,24.10
2018-05-06T13:01:13.373Z,24.30
2018-05-06T13:03:41.383Z,24.30
2018-05-06T13:06:10.018Z,24.40
2018-05-06T13:08:38.249Z,25.10
2018-05-06T13:11:06.225Z,25.00
2018-05-06T13:13:34.056Z,25.40
2018-05-06T13:16:01.963Z,25.70
2018-05-06T13:18:30.576Z,26.30
2018-05-06T13:20:58.602Z,26.30
2018-05-06T13:23:26.443Z,27.40
2018-05-06T13:25:54.310Z,27.40
2018-05-06T13:28:22.183Z,28.60
2018-05-06T13:30:50.022Z,29.50
2018-05-06T13:36:52.486Z,31.50
2018-05-06T13:39:20.307Z,32.60
2018-05-06T13:41:48.160Z,32.00
2018-05-06T13:44:16.765Z,30.20
2018-05-06T13:46:44.658Z,30.10
2018-05-06T13:49:13.279Z,32.30
2018-05-06T13:51:41.129Z,32.30
2018-05-06T13:56:52.126Z,30.30
2018-05-06T13:59:20.339Z,30.20
2018-05-06T14:01:48.224Z,30.80
2018-05-06T14:04:16.064Z,29.30
2018-05-06T14:06:44.275Z,30.10
2018-05-06T14:09:12.295Z,31.00
2018-05-06T14:11:40.149Z,31.10
2018-05-06T14:14:08.037Z,31.70
2018-05-06T14:16:36.640Z,31.40
2018-05-06T14:19:04.505Z,31.40
2018-05-06T14:21:32.329Z,32.30
2018-05-06T14:24:00.169Z,31.80
2018-05-06T14:26:28.015Z,31.60
2018-05-06T14:28:55.879Z,31.30
2018-05-06T14:31:23.705Z,33.40
2018-05-06T14:33:51.649Z,34.30
2018-05-06T14:36:20.249Z,33.40
2018-05-06T14:42:06.850Z,32.10
2018-05-06T14:44:34.702Z,31.20
2018-05-06T14:47:08.365Z,29.10
2018-05-06T14:49:36.192Z,29.20
2018-05-06T14:52:04.787Z,28.40
2018-05-06T14:57:14.660Z,27.90
2018-05-06T14:59:43.268Z,26.10
2018-05-06T15:02:11.110Z,26.10
2018-05-06T15:04:39.761Z,26.00
2018-05-06T15:07:07.599Z,26.00
2018-05-06T15:09:35.414Z,26.30
2018-05-06T15:12:03.225Z,25.80
2018-05-06T15:17:15.629Z,25.60
2018-05-06T15:19:43.502Z,25.90
2018-05-06T15:22:11.343Z,25.30
2018-05-06T15:24:39.269Z,24.90
2018-05-06T15:30:49.157Z,24.90
2018-05-06T15:33:17.788Z,24.40
2018-05-06T15:35:45.715Z,24.40
2018-05-06T15:38:13.651Z,24.30
2018-05-06T15:40:41.468Z,24.30
2018-05-06T15:43:10.146Z,24.80
2018-05-06T15:45:38.762Z,24.80
2018-05-06T15:48:06.624Z,24.80
2018-05-06T15:50:35.313Z,25.60
2018-05-06T15:53:03.092Z,25.50
2018-05-06T15:55:30.904Z,25.90
2018-05-06T15:57:59.523Z,25.30
2018-05-06T16:00:27.378Z,25.30
2018-05-06T16:12:05.526Z,25.70
2018-05-06T16:14:34.092Z,25.80
2018-05-06T16:17:02.096Z,25.80
2018-05-06T16:19:30.986Z,25.20
2018-05-06T16:21:59.590Z,25.30
2018-05-06T16:24:27.434Z,25.20
2018-05-06T16:26:55.319Z,25.50
2018-05-06T16:29:23.644Z,26.00
2018-05-06T16:35:37.346Z,25.10
2018-05-06T16:38:05.941Z,26.30
2018-05-06T16:40:33.777Z,26.20
2018-05-06T16:43:03.700Z,24.80
2018-05-06T16:45:31.523Z,24.70
2018-05-06T16:47:59.329Z,24.90
2018-05-06T16:50:27.144Z,25.00
2018-05-06T16:52:54.965Z,24.80
2018-05-06T16:55:22.780Z,24.50
2018-05-06T16:57:50.621Z,24.80
2018-05-06T17:00:18.449Z,25.00
2018-05-06T17:02:47.069Z,24.70
2018-05-06T17:05:14.914Z,24.70
2018-05-06T17:17:08.714Z,23.10
2018-05-06T17:19:36.557Z,23.10
2018-05-06T17:22:04.532Z,23.20
2018-05-06T17:24:32.284Z,23.20
2018-05-06T17:27:00.433Z,23.20
2018-05-06T17:29:29.641Z,22.30
2018-05-06T17:31:58.305Z,22.30
2018-05-06T17:34:26.908Z,22.40
2018-05-06T17:36:54.739Z,22.40
2018-05-06T17:42:15.045Z,22.30
2018-05-06T17:44:44.241Z,22.30
2018-05-06T17:47:12.085Z,21.90
2018-05-06T17:49:39.961Z,21.90
2018-05-06T17:52:07.853Z,21.90
2018-05-06T17:54:35.770Z,21.90
2018-05-06T17:57:04.768Z,21.70
2018-05-06T17:59:32.588Z,21.50
2018-05-06T18:02:00.793Z,21.30
2018-05-06T18:04:28.768Z,21.30
2018-05-06T18:06:56.605Z,21.20
2018-05-06T18:16:26.128Z,20.80
2018-05-06T18:18:53.970Z,20.80
2018-05-06T18:21:21.847Z,20.50
2018-05-06T18:23:49.676Z,20.30
2018-05-06T18:26:18.312Z,20.10
2018-05-06T18:28:46.085Z,20.10
2018-05-06T18:31:13.907Z,20.10
2018-05-06T18:33:41.736Z,20.00
2018-05-06T18:36:09.544Z,20.00
2018-05-06T18:38:37.496Z,19.80
2018-05-06T18:41:05.334Z,19.80
2018-05-06T18:43:34.124Z,19.50
2018-05-06T18:52:02.268Z,19.30
2018-05-06T18:54:30.081Z,19.30
2018-05-06T18:56:57.915Z,19.30
2018-05-06T18:59:25.772Z,19.10
2018-05-06T19:01:54.409Z,19.10
2018-05-06T19:11:22.494Z,18.70
2018-05-06T19:13:50.373Z,18.70
2018-05-06T19:16:18.214Z,18.60
2018-05-06T19:18:46.055Z,18.60
2018-05-06T19:21:13.889Z,18.60
2018-05-06T19:23:41.694Z,18.60
2018-05-06T19:26:09.564Z,18.60
2018-05-06T19:28:37.407Z,18.40
2018-05-06T19:31:06.013Z,18.30
2018-05-06T19:33:33.879Z,18.30
2018-05-06T19:36:01.721Z,18.30
2018-05-06T19:38:29.526Z,18.10
2018-05-06T19:40:57.354Z,18.10
2018-05-06T19:43:25.236Z,18.10
2018-05-06T19:45:53.190Z,18.00
2018-05-06T19:48:21.005Z,17.90
2018-05-06T19:50:48.851Z,17.80
2018-05-06T19:53:17.460Z,17.60
2018-05-06T19:55:45.373Z,17.60
2018-05-06T19:58:14.024Z,17.60
2018-05-06T20:00:41.845Z,17.50
2018-05-06T20:03:10.480Z,17.50
2018-05-06T20:05:38.391Z,17.50
2018-05-06T20:08:06.216Z,17.50
2018-05-06T20:10:34.056Z,17.50
2018-05-06T20:13:01.917Z,17.40
2018-05-06T20:15:30.531Z,17.40
2018-05-06T20:17:58.557Z,17.40
2018-05-06T20:20:27.153Z,17.30
2018-05-06T20:22:55.792Z,17.30
2018-05-06T20:25:23.742Z,17.20
2018-05-06T20:27:52.629Z,17.20
2018-05-06T20:30:20.457Z,17.10
2018-05-06T20:32:49.096Z,17.00
2018-05-06T20:35:17.010Z,17.00
2018-05-06T20:37:45.608Z,16.90
2018-05-06T20:40:14.216Z,16.90
2018-05-06T20:46:25.840Z,16.80
2018-05-06T20:48:53.697Z,16.80
2018-05-06T20:51:21.529Z,16.80
2018-05-06T20:57:14.622Z,16.60
2018-05-06T20:59:42.526Z,16.50
2018-05-06T21:04:51.161Z,16.50
2018-05-06T21:07:20.165Z,16.40
2018-05-06T21:09:48.117Z,16.30
2018-05-06T21:12:16.716Z,16.20
2018-05-06T21:14:44.686Z,16.10
2018-05-06T21:17:12.584Z,16.00
2018-05-06T21:19:41.602Z,15.80
2018-05-06T21:22:09.493Z,15.70
2018-05-06T21:24:38.218Z,15.70
2018-05-06T21:27:06.038Z,15.70
2018-05-06T21:29:33.914Z,15.70
2018-05-06T21:32:03.456Z,15.50
2018-05-06T21:34:31.623Z,15.50
2018-05-06T21:36:59.977Z,15.40
2018-05-06T21:42:10.914Z,15.10
2018-05-06T21:44:38.744Z,15.00
2018-05-06T21:47:07.440Z,14.80
2018-05-06T21:49:37.484Z,14.90
2018-05-06T21:52:05.472Z,14.80
2018-05-06T21:54:33.344Z,14.70
2018-05-06T21:57:01.261Z,14.60
2018-05-06T21:59:30.093Z,14.60
2018-05-06T22:05:50.184Z,14.60
2018-05-06T22:08:18.029Z,14.50
2018-05-06T22:10:46.740Z,14.50
2018-05-06T22:13:14.636Z,14.50
2018-05-06T22:15:42.468Z,14.50
2018-05-06T22:18:10.304Z,14.20
2018-05-06T22:20:38.230Z,14.10
2018-05-06T22:25:48.667Z,14.10
2018-05-06T22:30:59.253Z,14.10
2018-05-06T22:33:27.129Z,14.00
2018-05-06T22:35:55.806Z,13.90
2018-05-06T22:38:23.936Z,14.00
2018-05-06T22:40:52.222Z,14.00
2018-05-06T22:43:20.832Z,13.90
2018-05-06T22:45:48.972Z,13.90
2018-05-06T22:48:19.292Z,13.90
2018-05-06T22:50:47.166Z,13.90
2018-05-06T22:53:14.992Z,13.80
2018-05-06T22:55:57.973Z,13.80
2018-05-06T22:58:26.051Z,13.80
2018-05-06T23:01:09.956Z,13.90
2018-05-06T23:03:37.813Z,13.90
2018-05-06T23:06:05.627Z,13.90
2018-05-06T23:08:34.212Z,13.80
2018-05-06T23:11:02.076Z,13.80
2018-05-06T23:13:30.681Z,13.90
2018-05-06T23:15:58.496Z,13.90
2018-05-06T23:18:26.353Z,13.80
2018-05-06T23:20:54.230Z,13.80
2018-05-06T23:23:22.076Z,13.80
2018-05-06T23:25:49.891Z,13.50
2018-05-06T23:28:18.472Z,13.20
2018-05-06T23:33:30.236Z,13.20
2018-05-06T23:35:58.198Z,13.10
2018-05-06T23:38:26.027Z,13.00
2018-05-06T23:40:54.663Z,12.40
2018-05-06T23:46:57.412Z,12.70
2018-05-06T23:49:25.844Z,12.70
2018-05-06T23:51:53.688Z,12.80
2018-05-06T23:54:21.545Z,12.80
2018-05-06T23:56:50.116Z,12.60
2018-05-06T23:59:18.320Z,12.50
